createdAt,value
2022-11-01T00:00:38.649Z,98681.31
2022-11-01T00:03:24.188Z,98825.31
2022-11-01T00:06:09.664Z,98807.56
2022-11-01T00:08:55.138Z,98811.50
2022-11-01T00:11:41.004Z,98833.03
2022-11-01T00:14:26.394Z,98675.41
2022-11-01T00:17:12.103Z,98652.88
2022-11-01T00:19:57.821Z,98634.78
2022-11-01T00:22:43.216Z,98797.34
2022-11-01T00:25:29.082Z,98794.59
2022-11-01T00:28:14.745Z,98814.09
2022-11-01T00:31:00.646Z,98647.94
2022-11-01T00:33:46.738Z,98802.19
2022-11-01T00:36:36.426Z,98814.84
2022-11-01T00:39:21.756Z,98818.66
2022-11-01T00:42:07.684Z,98808.91
2022-11-01T00:44:53.977Z,98589.63
2022-11-01T00:47:39.454Z,98803.06
2022-11-01T00:50:25.233Z,98747.13
2022-11-01T00:53:12.356Z,98740.41
2022-11-01T00:56:02.175Z,98800.13
2022-11-01T00:58:47.594Z,98794.19
2022-11-01T01:01:32.860Z,98699.66
2022-11-01T01:04:18.383Z,98611.06
2022-11-01T01:07:03.536Z,98791.44
2022-11-01T01:09:49.002Z,98792.91
2022-11-01T01:12:34.381Z,98662.41
2022-11-01T01:15:19.807Z,98718.44
2022-11-01T01:18:06.076Z,98785.00
2022-11-01T01:20:51.522Z,98629.00
2022-11-01T01:23:37.365Z,98600.75
2022-11-01T01:26:22.528Z,98783.47
2022-11-01T01:29:07.658Z,98780.91
2022-11-01T01:31:53.119Z,98596.69
2022-11-01T01:34:38.328Z,98596.66
2022-11-01T01:37:23.650Z,98795.09
2022-11-01T01:40:10.019Z,98593.34
2022-11-01T01:42:55.488Z,98584.16
2022-11-01T01:45:41.679Z,98643.97
2022-11-01T01:48:27.755Z,98705.41
2022-11-01T01:51:17.989Z,98730.69
2022-11-01T01:54:03.399Z,98766.53
2022-11-01T01:56:49.406Z,98666.09
2022-11-01T01:59:36.946Z,98570.16
2022-11-01T02:02:22.902Z,98641.72
2022-11-01T02:05:17.123Z,98760.22
2022-11-01T02:08:04.827Z,98788.66
2022-11-01T02:10:50.440Z,98534.50
2022-11-01T02:13:36.388Z,98751.16
2022-11-01T02:16:40.630Z,98566.25
2022-11-01T02:20:02.044Z,98744.78
2022-11-01T02:22:59.717Z,98754.75
2022-11-01T02:26:06.952Z,98756.25
2022-11-01T02:29:03.208Z,98743.72
2022-11-01T02:32:21.660Z,98746.66
2022-11-01T02:35:16.222Z,98715.28
2022-11-01T02:38:07.575Z,98545.56
2022-11-01T02:41:16.134Z,98736.63
2022-11-01T02:44:08.004Z,98742.41
2022-11-01T02:47:01.588Z,98567.63
2022-11-01T02:49:59.845Z,98490.91
2022-11-01T02:52:46.217Z,98673.97
2022-11-01T02:55:33.878Z,98580.03
2022-11-01T02:58:23.725Z,98626.22
2022-11-01T03:01:15.299Z,98739.97
2022-11-01T03:04:02.255Z,98659.38
2022-11-01T03:06:55.014Z,98728.03
2022-11-01T03:09:41.598Z,98718.44
2022-11-01T03:12:32.976Z,98737.75
2022-11-01T03:15:26.619Z,98642.25
2022-11-01T03:18:20.097Z,98539.72
2022-11-01T03:21:16.159Z,98703.72
2022-11-01T03:24:17.306Z,98734.78
2022-11-01T03:27:27.428Z,98555.50
2022-11-01T03:30:14.833Z,98735.47
2022-11-01T03:33:00.792Z,98695.53
2022-11-01T03:35:49.614Z,98641.38
2022-11-01T03:38:39.718Z,98690.28
2022-11-01T03:41:27.610Z,98554.16
2022-11-01T03:44:14.061Z,98730.88
2022-11-01T03:46:59.913Z,98552.91
2022-11-01T03:49:45.037Z,98565.47
2022-11-01T03:52:30.522Z,98534.84
2022-11-01T03:55:18.274Z,98710.91
2022-11-01T03:58:03.786Z,98681.94
2022-11-01T04:00:50.833Z,98591.81
2022-11-01T04:03:36.352Z,98559.91
2022-11-01T04:06:21.907Z,98665.09
2022-11-01T04:09:07.926Z,98566.25
2022-11-01T04:11:53.454Z,98626.88
2022-11-01T04:14:57.292Z,98688.53
2022-11-01T04:18:01.326Z,98683.03
2022-11-01T04:20:46.862Z,98702.91
2022-11-01T04:23:33.189Z,98677.53
2022-11-01T04:26:21.471Z,98684.09
2022-11-01T04:29:06.735Z,98611.00
2022-11-01T04:31:51.957Z,98685.31
2022-11-01T04:34:43.496Z,98525.91
2022-11-01T04:37:29.301Z,98503.91
2022-11-01T04:40:15.617Z,98589.88
2022-11-01T04:43:01.663Z,98616.16
2022-11-01T04:45:54.337Z,98684.56
2022-11-01T04:48:39.752Z,98675.56
2022-11-01T04:51:25.065Z,98494.09
2022-11-01T04:54:10.490Z,98703.94
2022-11-01T04:56:55.740Z,98566.88
2022-11-01T04:59:41.198Z,98487.72
2022-11-01T05:02:26.679Z,98696.03
2022-11-01T05:05:12.767Z,98681.72
2022-11-01T05:08:07.463Z,98620.13
2022-11-01T05:10:55.495Z,98693.50
2022-11-01T05:13:41.217Z,98657.94
2022-11-01T05:16:26.909Z,98593.03
2022-11-01T05:19:12.337Z,98675.66
2022-11-01T05:21:59.877Z,98674.00
2022-11-01T05:24:45.316Z,98691.00
2022-11-01T05:27:30.909Z,98476.75
2022-11-01T05:30:16.734Z,98655.47
2022-11-01T05:33:04.225Z,98506.16
2022-11-01T05:35:49.689Z,98671.31
2022-11-01T05:38:36.602Z,98637.34
2022-11-01T05:41:22.201Z,98504.81
2022-11-01T05:44:07.498Z,98583.78
2022-11-01T05:46:53.155Z,98442.81
2022-11-01T05:49:38.587Z,98537.53
2022-11-01T05:52:24.120Z,98664.91
2022-11-01T05:55:10.077Z,98637.66
2022-11-01T05:57:59.219Z,98604.28
2022-11-01T06:00:44.486Z,98601.78
2022-11-01T06:03:31.462Z,98629.50
2022-11-01T06:06:17.065Z,98665.31
2022-11-01T06:09:03.349Z,98657.63
2022-11-01T06:11:49.941Z,98480.72
2022-11-01T06:14:38.847Z,98474.72
2022-11-01T06:17:25.014Z,98644.16
2022-11-01T06:20:11.813Z,98653.44
2022-11-01T06:22:58.727Z,98629.91
2022-11-01T06:25:44.087Z,98596.78
2022-11-01T06:28:29.715Z,98638.81
2022-11-01T06:31:14.988Z,98654.69
2022-11-01T06:34:00.424Z,98441.81
2022-11-01T06:36:46.010Z,98622.28
2022-11-01T06:39:31.458Z,98521.38
2022-11-01T06:42:17.066Z,98603.66
2022-11-01T06:45:02.280Z,98612.56
2022-11-01T06:47:48.862Z,98614.28
2022-11-01T06:50:35.271Z,98574.72
2022-11-01T06:53:21.899Z,98567.59
2022-11-01T06:56:07.584Z,98597.59
2022-11-01T06:58:53.436Z,98423.84
2022-11-01T07:01:38.940Z,98553.16
2022-11-01T07:04:27.066Z,98578.91
2022-11-01T07:07:12.822Z,98610.41
2022-11-01T07:09:58.103Z,98604.00
2022-11-01T07:12:43.578Z,98606.47
2022-11-01T07:15:29.849Z,98569.91
2022-11-01T07:18:15.219Z,98604.38
2022-11-01T07:21:04.994Z,98560.13
2022-11-01T07:23:52.677Z,98559.63
2022-11-01T07:26:38.324Z,98592.44
2022-11-01T07:29:23.835Z,98581.09
2022-11-01T07:32:09.258Z,98547.56
2022-11-01T07:34:54.662Z,98602.09
2022-11-01T07:37:41.356Z,98579.63
2022-11-01T07:40:28.072Z,98572.63
2022-11-01T07:43:14.409Z,98583.25
2022-11-01T07:46:07.455Z,98495.81
2022-11-01T07:48:53.172Z,98566.72
2022-11-01T07:51:38.681Z,98577.38
2022-11-01T07:54:28.368Z,98436.84
2022-11-01T07:57:13.770Z,98406.44
2022-11-01T07:59:59.475Z,98556.19
2022-11-01T08:02:44.994Z,98573.78
2022-11-01T08:05:30.606Z,98514.03
2022-11-01T08:08:16.632Z,98545.88
2022-11-01T08:11:03.147Z,98399.72
2022-11-01T08:13:48.820Z,98558.38
2022-11-01T08:16:34.270Z,98449.78
2022-11-01T08:19:19.555Z,98525.75
2022-11-01T08:22:05.431Z,98524.16
2022-11-01T08:24:51.187Z,98382.06
2022-11-01T08:27:36.533Z,98553.19
2022-11-01T08:30:22.789Z,98373.47
2022-11-01T08:33:08.741Z,98539.69
2022-11-01T08:35:55.323Z,98527.13
2022-11-01T08:38:41.837Z,98521.28
2022-11-01T08:41:28.467Z,98520.50
2022-11-01T08:44:14.015Z,98530.47
2022-11-01T08:47:01.650Z,98525.63
2022-11-01T08:49:47.260Z,98376.75
2022-11-01T08:52:33.313Z,98517.50
2022-11-01T08:55:18.948Z,98497.88
2022-11-01T08:58:05.001Z,98484.53
2022-11-01T09:00:51.133Z,98516.41
2022-11-01T09:03:36.839Z,98509.03
2022-11-01T09:06:22.328Z,98350.19
2022-11-01T09:09:08.240Z,98510.00
2022-11-01T09:11:53.869Z,98468.28
2022-11-01T09:14:40.285Z,98453.03
2022-11-01T09:17:25.920Z,98502.13
2022-11-01T09:20:11.842Z,98489.50
2022-11-01T09:22:57.766Z,98502.00
2022-11-01T09:25:43.686Z,98480.81
2022-11-01T09:28:33.699Z,98266.38
2022-11-01T09:31:21.610Z,98399.56
2022-11-01T09:34:07.805Z,98480.19
2022-11-01T09:36:54.196Z,98498.53
2022-11-01T09:39:39.600Z,98484.72
2022-11-01T09:42:34.427Z,98479.63
2022-11-01T09:45:23.467Z,98495.56
2022-11-01T09:48:14.581Z,98321.66
2022-11-01T09:51:04.913Z,98474.25
2022-11-01T09:53:56.326Z,98470.50
2022-11-01T09:56:51.306Z,98462.63
2022-11-01T09:59:49.337Z,98353.19
2022-11-01T10:02:50.148Z,98460.88
2022-11-01T10:05:48.519Z,98327.38
2022-11-01T10:08:49.385Z,98457.72
2022-11-01T10:12:04.799Z,98469.38
2022-11-01T10:15:02.377Z,98455.28
2022-11-01T10:17:52.091Z,98459.19
2022-11-01T10:20:40.619Z,98413.47
2022-11-01T10:23:53.106Z,98439.81
2022-11-01T10:26:44.405Z,98283.72
2022-11-01T10:29:52.527Z,98371.66
2022-11-01T10:32:49.815Z,98279.47
2022-11-01T10:35:43.474Z,98272.78
2022-11-01T10:38:41.902Z,98448.38
2022-11-01T10:41:47.212Z,98340.16
2022-11-01T10:44:38.571Z,98423.56
2022-11-01T10:47:24.915Z,98374.50
2022-11-01T10:50:14.486Z,98280.03
2022-11-01T10:53:08.198Z,98416.09
2022-11-01T10:55:58.951Z,98430.31
2022-11-01T10:58:58.534Z,98256.69
2022-11-01T11:01:45.200Z,98407.63
2022-11-01T11:04:31.094Z,98297.56
2022-11-01T11:07:21.480Z,98365.63
2022-11-01T11:10:23.849Z,98404.44
2022-11-01T11:13:10.687Z,98213.22
2022-11-01T11:16:02.394Z,98355.56
2022-11-01T11:19:01.426Z,98349.50
2022-11-01T11:21:50.009Z,98376.81
2022-11-01T11:24:38.761Z,98377.75
2022-11-01T11:27:29.100Z,98380.88
2022-11-01T11:30:27.668Z,98298.91
2022-11-01T11:33:18.188Z,98382.75
2022-11-01T11:36:04.477Z,98354.31
2022-11-01T11:38:51.463Z,98321.94
2022-11-01T11:41:38.666Z,98365.34
2022-11-01T11:44:45.555Z,98349.56
2022-11-01T11:47:36.313Z,98292.47
2022-11-01T11:50:23.020Z,98340.88
2022-11-01T11:53:20.231Z,98333.81
2022-11-01T11:56:08.958Z,98320.91
2022-11-01T11:58:56.479Z,98328.13
2022-11-01T12:01:42.711Z,98188.31
2022-11-01T12:04:45.596Z,98236.53
2022-11-01T12:07:34.873Z,98300.88
2022-11-01T12:10:45.544Z,98323.50
2022-11-01T12:13:43.426Z,98325.88
2022-11-01T12:19:27.546Z,98330.34
2022-11-01T12:22:13.322Z,98274.63
2022-11-01T12:25:05.610Z,98334.09
2022-11-01T12:28:14.112Z,98197.81
2022-11-01T12:31:06.381Z,98183.72
2022-11-01T12:33:51.552Z,98301.34
2022-11-01T12:36:50.627Z,98299.91
2022-11-01T12:40:02.481Z,98228.97
2022-11-01T12:42:52.123Z,98298.63
2022-11-01T12:45:57.871Z,98307.03
2022-11-01T12:48:47.813Z,98289.59
2022-11-01T12:51:41.803Z,98227.81
2022-11-01T12:54:29.677Z,98276.81
2022-11-01T12:57:18.262Z,98261.09
2022-11-01T13:00:05.822Z,98283.69
2022-11-01T13:02:54.173Z,98302.59
2022-11-01T13:06:08.857Z,98289.84
2022-11-01T13:09:18.473Z,98271.53
2022-11-01T13:12:35.124Z,98272.91
2022-11-01T13:15:29.718Z,98284.13
2022-11-01T13:18:42.221Z,98178.91
2022-11-01T13:21:34.393Z,98265.94
2022-11-01T13:24:34.951Z,98256.16
2022-11-01T13:27:29.129Z,98278.00
2022-11-01T13:30:19.170Z,98204.41
2022-11-01T13:33:30.958Z,98266.13
2022-11-01T13:36:35.638Z,98241.41
2022-11-01T13:39:40.571Z,98183.56
2022-11-01T13:42:38.832Z,98185.63
2022-11-01T13:45:43.545Z,98239.22
2022-11-01T13:48:41.453Z,98237.78
2022-11-01T13:51:30.156Z,98228.34
2022-11-01T13:54:27.490Z,98231.78
2022-11-01T13:57:19.120Z,98236.69
2022-11-01T14:00:09.439Z,98212.19
2022-11-01T14:02:59.263Z,98115.66
2022-11-01T14:05:46.525Z,98168.94
2022-11-01T14:08:37.389Z,98215.13
2022-11-01T14:11:41.554Z,98236.09
2022-11-01T14:14:30.264Z,98250.72
2022-11-01T14:17:18.824Z,98246.47
2022-11-01T14:20:06.530Z,98226.66
2022-11-01T14:22:53.498Z,98115.41
2022-11-01T14:25:39.085Z,98226.34
2022-11-01T14:28:24.767Z,98176.97
2022-11-01T14:31:15.727Z,98164.31
2022-11-01T14:34:06.167Z,98232.66
2022-11-01T14:36:55.222Z,98222.50
2022-11-01T14:39:55.519Z,98225.72
2022-11-01T14:42:44.754Z,98231.75
2022-11-01T14:45:45.721Z,98227.09
2022-11-01T14:48:40.042Z,98221.06
2022-11-01T14:51:31.542Z,98226.25
2022-11-01T14:55:24.953Z,98217.13
2022-11-01T14:58:22.479Z,98210.38
2022-11-01T15:01:13.731Z,98229.16
2022-11-01T15:04:01.098Z,98211.50
2022-11-01T15:06:47.324Z,98085.88
2022-11-01T15:09:33.276Z,98210.59
2022-11-01T15:12:19.268Z,98225.84
2022-11-01T15:15:05.468Z,98234.25
2022-11-01T15:18:06.649Z,98109.97
2022-11-01T15:20:56.324Z,98071.44
2022-11-01T15:23:45.633Z,98226.75
2022-11-01T15:26:33.429Z,98074.09
2022-11-01T15:29:22.201Z,98224.06
2022-11-01T15:32:26.564Z,98202.25
2022-11-01T15:35:26.191Z,98080.41
2022-11-01T15:38:20.588Z,98085.00
2022-11-01T15:41:26.039Z,98081.16
2022-11-01T15:44:26.933Z,98085.28
2022-11-01T15:47:18.925Z,98173.31
2022-11-01T15:50:06.405Z,98235.53
2022-11-01T15:52:53.393Z,98238.72
2022-11-01T15:55:44.907Z,98210.88
2022-11-01T15:58:53.051Z,98242.78
2022-11-01T16:01:39.804Z,98236.25
2022-11-01T16:04:26.928Z,98193.75
2022-11-01T16:07:17.007Z,98078.72
2022-11-01T16:10:05.634Z,98236.25
2022-11-01T16:12:53.023Z,98170.34
2022-11-01T16:15:38.507Z,98250.91
2022-11-01T16:18:25.748Z,98228.59
2022-11-01T16:21:21.021Z,98240.00
2022-11-01T16:24:15.720Z,98086.69
2022-11-01T16:27:06.239Z,98229.81
2022-11-01T16:29:53.077Z,98242.22
2022-11-01T16:32:39.075Z,98259.44
2022-11-01T16:35:34.409Z,98213.81
2022-11-01T16:38:36.007Z,98259.06
2022-11-01T16:41:24.270Z,98267.44
2022-11-01T16:44:16.113Z,98268.38
2022-11-01T16:47:02.021Z,98283.63
2022-11-01T16:49:54.404Z,98255.09
2022-11-01T16:52:40.411Z,98299.00
2022-11-01T16:55:28.468Z,98144.69
2022-11-01T16:58:20.411Z,98325.16
2022-11-01T17:01:06.663Z,98253.56
2022-11-01T17:03:53.209Z,98301.59
2022-11-01T17:06:39.547Z,98280.50
2022-11-01T17:09:25.381Z,98308.09
2022-11-01T17:12:12.808Z,98305.97
2022-11-01T17:14:59.494Z,98314.75
2022-11-01T17:17:48.599Z,98252.03
2022-11-01T17:20:36.708Z,98317.81
2022-11-01T17:23:24.257Z,98159.97
2022-11-01T17:26:15.842Z,98307.63
2022-11-01T17:29:01.711Z,98158.22
2022-11-01T17:31:47.050Z,98294.78
2022-11-01T17:37:25.906Z,98270.25
2022-11-01T17:40:20.567Z,98315.03
2022-11-01T17:43:06.082Z,98307.81
2022-11-01T17:45:52.012Z,98336.56
2022-11-01T17:48:37.835Z,98184.97
2022-11-01T17:51:23.207Z,98041.78
2022-11-01T17:54:09.857Z,98313.41
2022-11-01T17:56:55.615Z,98198.91
2022-11-01T17:59:41.051Z,98358.66
2022-11-01T18:02:26.937Z,98175.13
2022-11-01T18:05:13.864Z,98354.69
2022-11-01T18:08:03.054Z,98344.41
2022-11-01T18:11:01.240Z,98377.50
2022-11-01T18:14:10.393Z,98200.63
2022-11-01T18:17:16.223Z,98316.78
2022-11-01T18:20:30.219Z,98355.94
2022-11-01T18:23:19.704Z,98327.69
2022-11-01T18:26:10.811Z,98242.28
2022-11-01T18:29:17.645Z,98341.69
2022-11-01T18:32:16.939Z,98370.75
2022-11-01T18:35:17.757Z,98367.56
2022-11-01T18:38:13.507Z,98374.06
2022-11-01T18:41:04.878Z,98377.66
2022-11-01T18:43:53.852Z,98391.69
2022-11-01T18:46:44.470Z,98329.19
2022-11-01T18:49:30.917Z,98385.88
2022-11-01T18:52:19.485Z,98384.59
2022-11-01T18:55:13.893Z,98379.66
2022-11-01T18:58:11.363Z,98235.00
2022-11-01T19:01:13.439Z,98379.31
2022-11-01T19:04:22.251Z,98378.09
2022-11-01T19:07:20.197Z,98383.81
2022-11-01T19:10:18.709Z,98379.56
2022-11-01T19:13:12.814Z,98279.44
2022-11-01T19:16:02.202Z,98370.34
2022-11-01T19:18:50.837Z,98371.34
2022-11-01T19:21:37.056Z,98388.06
2022-11-01T19:24:34.993Z,98388.53
2022-11-01T19:27:23.868Z,98395.25
2022-11-01T19:30:37.337Z,98387.81
2022-11-01T19:33:33.695Z,98379.91
2022-11-01T19:36:23.667Z,98395.59
2022-11-01T19:39:20.538Z,98322.91
2022-11-01T19:42:12.897Z,98404.94
2022-11-01T19:45:00.301Z,98404.22
2022-11-01T19:47:50.947Z,98403.34
2022-11-01T19:50:41.646Z,98407.59
2022-11-01T19:53:34.019Z,98396.34
2022-11-01T19:56:21.222Z,98343.56
2022-11-01T19:59:15.281Z,98409.97
2022-11-01T20:02:05.040Z,98252.53
2022-11-01T20:05:00.009Z,98366.69
2022-11-01T20:07:45.666Z,98402.81
2022-11-01T20:10:31.508Z,98247.22
2022-11-01T20:13:18.458Z,98418.91
2022-11-01T20:16:03.875Z,98358.28
2022-11-01T20:18:49.876Z,98403.09
2022-11-01T20:21:35.354Z,98405.16
2022-11-01T20:24:20.739Z,98249.78
2022-11-01T20:27:06.362Z,98421.22
2022-11-01T20:29:52.229Z,98419.84
2022-11-01T20:32:38.102Z,98421.03
2022-11-01T20:35:23.752Z,98443.38
2022-11-01T20:41:08.964Z,98409.31
2022-11-01T20:43:54.727Z,98433.75
2022-11-01T20:46:40.233Z,98307.31
2022-11-01T20:49:25.982Z,98439.06
2022-11-01T20:52:38.110Z,98440.97
2022-11-01T20:55:21.019Z,98429.56
2022-11-01T20:58:07.695Z,98294.53
2022-11-01T21:00:54.540Z,98445.97
2022-11-01T21:03:40.252Z,98453.28
2022-11-01T21:06:31.990Z,98457.09
2022-11-01T21:09:30.236Z,98437.78
2022-11-01T21:12:28.140Z,98337.28
2022-11-01T21:15:26.277Z,98448.88
2022-11-01T21:18:12.365Z,98465.38
2022-11-01T21:20:59.722Z,98442.81
2022-11-01T21:23:46.591Z,98442.34
2022-11-01T21:26:35.997Z,98413.25
2022-11-01T21:29:27.667Z,98442.47
2022-11-01T21:32:34.610Z,98434.09
2022-11-01T21:35:20.004Z,98432.94
2022-11-01T21:38:29.103Z,98433.78
2022-11-01T21:41:21.141Z,98400.06
2022-11-01T21:44:16.258Z,98429.22
2022-11-01T21:47:14.052Z,98296.16
2022-11-01T21:49:59.587Z,98261.00
2022-11-01T21:52:45.838Z,98385.94
2022-11-01T21:55:31.494Z,98284.38
2022-11-01T21:58:16.720Z,98426.00
2022-11-01T22:01:02.296Z,98431.22
2022-11-01T22:03:47.971Z,98385.00
2022-11-01T22:06:33.387Z,98416.28
2022-11-01T22:09:19.744Z,98426.09
2022-11-01T22:12:06.818Z,98402.50
2022-11-01T22:14:52.559Z,98435.16
2022-11-01T22:17:38.197Z,98408.16
2022-11-01T22:20:23.614Z,98273.34
2022-11-01T22:23:09.536Z,98393.81
2022-11-01T22:25:54.878Z,98447.41
2022-11-01T22:28:40.314Z,98269.28
2022-11-01T22:31:26.145Z,98436.63
2022-11-01T22:34:11.819Z,98362.41
2022-11-01T22:36:57.559Z,98283.34
2022-11-01T22:39:43.843Z,98264.34
2022-11-01T22:42:31.364Z,98437.25
2022-11-01T22:45:18.595Z,98317.38
2022-11-01T22:48:14.495Z,98270.44
2022-11-01T22:51:02.711Z,98278.97
2022-11-01T22:53:49.201Z,98282.78
2022-11-01T22:56:34.676Z,98305.81
2022-11-01T22:59:20.167Z,98448.09
2022-11-01T23:02:37.744Z,98446.78
2022-11-01T23:05:25.328Z,98249.69
2022-11-01T23:08:25.978Z,98445.50
2022-11-01T23:11:44.805Z,98284.41
2022-11-01T23:14:37.762Z,98434.94
2022-11-01T23:17:31.399Z,98277.97
2022-11-01T23:20:17.353Z,98283.41
2022-11-01T23:23:04.684Z,98431.75
2022-11-01T23:25:52.328Z,98447.44
2022-11-01T23:28:42.066Z,98399.56
2022-11-01T23:31:29.073Z,98386.22
2022-11-01T23:34:14.598Z,98443.78
2022-11-01T23:37:00.088Z,98471.75
2022-11-01T23:39:45.944Z,98386.19
2022-11-01T23:42:31.898Z,98282.88
2022-11-01T23:45:27.971Z,98375.97
2022-11-01T23:48:14.149Z,98443.34
2022-11-01T23:50:59.719Z,98310.13
2022-11-01T23:53:48.762Z,98446.44
2022-11-01T23:56:34.149Z,98356.41
2022-11-01T23:59:19.625Z,98275.59
